Asheville, NC (28804)

3:11 PM EST on December 22, 2014 (GMT -0500)
Sherwood Heights | Change Station
CLOSE
Current Station
Personal Weather Station
Location: Asheville, NC
Elevation: 2497 ft
Nearby Weather Stations

Elev 2497 ft 35.65 °N, 82.55 °W | Updated 1 second ago

Overcast
Overcast
48.5 °F
Feels Like 48 °F
N
1.0
Wind Variable Wind from SW
Gusts 7.0 mph

Today
High -- | Low -- °F
--% Chance of Precip.
Yesterday
High -- | Low -- °F
Precip. -- in
7:36 AM 5:21 PM
New Moon, 1% visible
Pressure 29.97 in
Visibility 2.0 miles
Clouds Overcast 1000 ft
Windchill 48 °F
Dew Point 42 °F
Humidity 79%
Rainfall 0.00 in
Snow Depth Not available.
UV 1 out of 12
Pollen .30 out of 12
Air Quality Not available.
Flu Activity Not available.
METAR KAVL 221954Z 18010KT 2SM BR OVC010 06/04 A2996 RMK AO2 SLP147 T00610044

More Conditions Fewer Conditions

Pressure 29.97 in
Visibility 2.0 miles
Clouds Overcast 1000 ft
Windchill 48 °F
Dew Point 42 °F
Humidity 79%
Rainfall 0.00 in
Snow Depth Not available.
UV 1 out of 12
Pollen .30 out of 12
Air Quality Not available.
Flu Activity Not available.
METAR KAVL 221954Z 18010KT 2SM BR OVC010 06/04 A2996 RMK AO2 SLP147 T00610044

More Conditions Fewer Conditions

10-Day Weather Forecast

Almanac

Astronomy

Dec. 22, 2014 Rise Set
Actual Time
Civil Twilight
Nautical Twilight
Astronomical Twilight
Moon
Length of Visible Light
Length of Day
Tomorrow will be .
, % of the Moon is Illuminated

Today's Extremes

State Highs State Lows

Community

WunderPhotos

Upload Photos

1,779,708 photos uploaded!

WunderBlogs® & News

Nearby

Air Quality

  Air Quality AQ Index Pollutant
Not available.

Snow Depth

Station Depth Elevation

Earthquake Activity

City Distance Mag. Time & Date
Minimum magnitude displayed is 2.5.

Coastal Water Temperatures

Place Temperature

Nearby Weather Stations